sensor_id;sensor_type;location;lat;lon;timestamp;pressure;altitude;pressure_sealevel;temperature;humidity
80629;BME280;69983;42.370;-71.210;2023-08-31T00:01:25;100256.67;;;24.37;25.13
80629;BME280;69983;42.370;-71.210;2023-08-31T00:03:24;100253.28;;;23.96;25.26
80629;BME280;69983;42.370;-71.210;2023-08-31T00:05:24;100258.91;;;23.30;25.53
80629;BME280;69983;42.370;-71.210;2023-08-31T00:07:25;100264.72;;;23.01;26.38
80629;BME280;69983;42.370;-71.210;2023-08-31T00:09:26;100275.92;;;24.06;25.27
80629;BME280;69983;42.370;-71.210;2023-08-31T00:11:27;100284.65;;;24.66;25.05
80629;BME280;69983;42.370;-71.210;2023-08-31T00:13:26;100287.58;;;24.90;24.58
80629;BME280;69983;42.370;-71.210;2023-08-31T00:15:31;100286.41;;;24.84;24.60
80629;BME280;69983;42.370;-71.210;2023-08-31T00:17:28;100287.57;;;24.14;25.17
80629;BME280;69983;42.370;-71.210;2023-08-31T00:19:26;100286.65;;;23.44;25.26
80629;BME280;69983;42.370;-71.210;2023-08-31T00:21:27;100286.80;;;23.31;25.37
80629;BME280;69983;42.370;-71.210;2023-08-31T00:23:28;100292.36;;;23.59;25.59
80629;BME280;69983;42.370;-71.210;2023-08-31T00:25:28;100292.85;;;24.15;25.10
80629;BME280;69983;42.370;-71.210;2023-08-31T00:27:28;100298.06;;;24.51;24.94
80629;BME280;69983;42.370;-71.210;2023-08-31T00:29:28;100303.04;;;25.12;25.01
80629;BME280;69983;42.370;-71.210;2023-08-31T00:31:28;100307.75;;;23.66;25.31
80629;BME280;69983;42.370;-71.210;2023-08-31T00:33:29;100309.48;;;24.06;25.33
80629;BME280;69983;42.370;-71.210;2023-08-31T00:35:29;100306.93;;;23.14;25.41
80629;BME280;69983;42.370;-71.210;2023-08-31T00:37:30;100303.31;;;23.13;25.63
80629;BME280;69983;42.370;-71.210;2023-08-31T00:39:32;100303.35;;;23.30;25.34
80629;BME280;69983;42.370;-71.210;2023-08-31T00:41:31;100308.78;;;23.91;25.12
80629;BME280;69983;42.370;-71.210;2023-08-31T00:43:32;100312.40;;;24.55;24.68
80629;BME280;69983;42.370;-71.210;2023-08-31T00:45:32;100319.21;;;24.52;24.65
80629;BME280;69983;42.370;-71.210;2023-08-31T00:47:33;100324.52;;;24.63;24.69
80629;BME280;69983;42.370;-71.210;2023-08-31T00:49:34;100330.06;;;24.04;25.04
80629;BME280;69983;42.370;-71.210;2023-08-31T00:51:34;100329.74;;;23.63;25.10
80629;BME280;69983;42.370;-71.210;2023-08-31T00:53:35;100331.23;;;23.15;25.26
80629;BME280;69983;42.370;-71.210;2023-08-31T00:55:36;100329.85;;;22.83;25.29
80629;BME280;69983;42.370;-71.210;2023-08-31T00:57:37;100337.09;;;23.90;24.95
80629;BME280;69983;42.370;-71.210;2023-08-31T00:59:37;100339.34;;;24.36;24.70
80629;BME280;69983;42.370;-71.210;2023-08-31T01:01:41;100338.69;;;25.01;24.48
80629;BME280;69983;42.370;-71.210;2023-08-31T01:03:48;100342.88;;;24.82;24.37
80629;BME280;69983;42.370;-71.210;2023-08-31T01:05:44;100343.40;;;23.64;25.22
80629;BME280;69983;42.370;-71.210;2023-08-31T01:07:46;100345.64;;;23.70;25.12
80629;BME280;69983;42.370;-71.210;2023-08-31T01:09:43;100347.90;;;23.95;24.83
80629;BME280;69983;42.370;-71.210;2023-08-31T01:11:48;100346.93;;;23.36;25.20
80629;BME280;69983;42.370;-71.210;2023-08-31T01:13:43;100340.61;;;23.70;25.05
80629;BME280;69983;42.370;-71.210;2023-08-31T01:15:44;100342.98;;;24.48;24.54
80629;BME280;69983;42.370;-71.210;2023-08-31T01:17:47;100344.99;;;24.61;24.36
80629;BME280;69983;42.370;-71.210;2023-08-31T01:19:48;100350.42;;;24.55;24.32
80629;BME280;69983;42.370;-71.210;2023-08-31T01:21:43;100354.31;;;24.92;24.23
80629;BME280;69983;42.370;-71.210;2023-08-31T01:23:50;100360.23;;;24.50;24.58
80629;BME280;69983;42.370;-71.210;2023-08-31T01:25:43;100357.64;;;23.67;24.94
80629;BME280;69983;42.370;-71.210;2023-08-31T01:27:43;100355.68;;;23.71;24.76
80629;BME280;69983;42.370;-71.210;2023-08-31T01:29:44;100352.12;;;23.20;24.98
80629;BME280;69983;42.370;-71.210;2023-08-31T01:31:44;100344.93;;;24.06;24.75
80629;BME280;69983;42.370;-71.210;2023-08-31T01:33:44;100346.78;;;24.45;24.40
80629;BME280;69983;42.370;-71.210;2023-08-31T01:35:48;100345.59;;;25.01;24.07
80629;BME280;69983;42.370;-71.210;2023-08-31T01:37:50;100344.04;;;25.00;24.07
80629;BME280;69983;42.370;-71.210;2023-08-31T01:39:52;100344.71;;;24.99;24.10
80629;BME280;69983;42.370;-71.210;2023-08-31T01:41:55;100348.26;;;24.66;24.34
80629;BME280;69983;42.370;-71.210;2023-08-31T01:43:48;100355.96;;;24.63;24.08
80629;BME280;69983;42.370;-71.210;2023-08-31T01:45:49;100359.37;;;24.11;24.19
80629;BME280;69983;42.370;-71.210;2023-08-31T01:47:49;100360.33;;;23.75;24.36
80629;BME280;69983;42.370;-71.210;2023-08-31T01:49:51;100361.97;;;24.04;24.67
80629;BME280;69983;42.370;-71.210;2023-08-31T01:51:50;100367.29;;;24.53;24.44
80629;BME280;69983;42.370;-71.210;2023-08-31T01:53:51;100371.61;;;24.65;24.30
80629;BME280;69983;42.370;-71.210;2023-08-31T01:55:51;100371.45;;;24.97;24.18
80629;BME280;69983;42.370;-71.210;2023-08-31T01:57:52;100375.07;;;24.93;24.10
80629;BME280;69983;42.370;-71.210;2023-08-31T01:59:53;100378.41;;;25.05;24.30
80629;BME280;69983;42.370;-71.210;2023-08-31T02:01:53;100374.21;;;24.64;24.44
80629;BME280;69983;42.370;-71.210;2023-08-31T02:03:53;100379.14;;;23.97;24.85
80629;BME280;69983;42.370;-71.210;2023-08-31T02:05:53;100387.99;;;23.55;25.04
80629;BME280;69983;42.370;-71.210;2023-08-31T02:07:54;100389.15;;;23.58;25.04
80629;BME280;69983;42.370;-71.210;2023-08-31T02:09:55;100386.94;;;23.24;25.30
80629;BME280;69983;42.370;-71.210;2023-08-31T02:11:55;100385.79;;;24.53;24.42
80629;BME280;69983;42.370;-71.210;2023-08-31T02:13:56;100391.72;;;24.93;24.00
80629;BME280;69983;42.370;-71.210;2023-08-31T02:15:56;100392.22;;;25.58;23.60
80629;BME280;69983;42.370;-71.210;2023-08-31T02:17:57;100394.42;;;25.52;23.55
80629;BME280;69983;42.370;-71.210;2023-08-31T02:19:57;100395.88;;;25.14;23.98
80629;BME280;69983;42.370;-71.210;2023-08-31T02:21:57;100396.54;;;25.43;23.63
80629;BME280;69983;42.370;-71.210;2023-08-31T02:23:58;100396.75;;;25.92;23.49
80629;BME280;69983;42.370;-71.210;2023-08-31T02:25:58;100405.60;;;24.30;24.08
80629;BME280;69983;42.370;-71.210;2023-08-31T02:27:58;100405.75;;;24.83;24.01
80629;BME280;69983;42.370;-71.210;2023-08-31T02:29:58;100408.72;;;24.33;24.00
80629;BME280;69983;42.370;-71.210;2023-08-31T02:31:59;100403.84;;;24.29;24.32
80629;BME280;69983;42.370;-71.210;2023-08-31T02:33:59;100400.95;;;24.98;23.70
80629;BME280;69983;42.370;-71.210;2023-08-31T02:36:00;100405.39;;;25.72;23.41
80629;BME280;69983;42.370;-71.210;2023-08-31T02:38:01;100411.35;;;25.55;23.46
80629;BME280;69983;42.370;-71.210;2023-08-31T02:40:00;100417.21;;;25.65;23.51
80629;BME280;69983;42.370;-71.210;2023-08-31T02:42:01;100420.87;;;25.88;23.52
80629;BME280;69983;42.370;-71.210;2023-08-31T02:44:02;100421.15;;;25.65;23.38
80629;BME280;69983;42.370;-71.210;2023-08-31T02:46:02;100421.32;;;24.97;23.65
80629;BME280;69983;42.370;-71.210;2023-08-31T02:48:02;100412.17;;;24.04;24.12
80629;BME280;69983;42.370;-71.210;2023-08-31T02:50:02;100408.22;;;24.23;23.89
80629;BME280;69983;42.370;-71.210;2023-08-31T02:52:03;100404.34;;;23.97;24.16
80629;BME280;69983;42.370;-71.210;2023-08-31T02:54:03;100405.60;;;25.08;23.56
80629;BME280;69983;42.370;-71.210;2023-08-31T02:56:04;100407.20;;;25.32;23.29
80629;BME280;69983;42.370;-71.210;2023-08-31T02:58:04;100409.60;;;25.72;23.07
80629;BME280;69983;42.370;-71.210;2023-08-31T03:00:05;100409.83;;;25.34;23.30
80629;BME280;69983;42.370;-71.210;2023-08-31T03:02:04;100413.09;;;25.68;23.35
80629;BME280;69983;42.370;-71.210;2023-08-31T03:04:06;100415.53;;;25.75;22.97
80629;BME280;69983;42.370;-71.210;2023-08-31T03:06:07;100418.44;;;25.40;23.10
80629;BME280;69983;42.370;-71.210;2023-08-31T03:08:06;100419.77;;;24.71;23.40
80629;BME280;69983;42.370;-71.210;2023-08-31T03:10:07;100415.64;;;24.41;23.63
80629;BME280;69983;42.370;-71.210;2023-08-31T03:12:07;100411.64;;;23.78;23.93
80629;BME280;69983;42.370;-71.210;2023-08-31T03:14:07;100410.44;;;24.47;23.93
80629;BME280;69983;42.370;-71.210;2023-08-31T03:16:08;100411.65;;;24.93;23.65
80629;BME280;69983;42.370;-71.210;2023-08-31T03:18:08;100408.28;;;25.31;23.47
80629;BME280;69983;42.370;-71.210;2023-08-31T03:20:10;100411.39;;;25.01;23.60
80629;BME280;69983;42.370;-71.210;2023-08-31T03:22:09;100417.96;;;25.13;23.68
80629;BME280;69983;42.370;-71.210;2023-08-31T03:24:09;100421.21;;;25.14;23.83
80629;BME280;69983;42.370;-71.210;2023-08-31T03:26:10;100429.45;;;25.28;23.77
80629;BME280;69983;42.370;-71.210;2023-08-31T03:28:10;100436.61;;;23.55;24.76
80629;BME280;69983;42.370;-71.210;2023-08-31T03:30:11;100440.14;;;23.85;24.32
80629;BME280;69983;42.370;-71.210;2023-08-31T03:32:11;100438.01;;;23.47;24.84
80629;BME280;69983;42.370;-71.210;2023-08-31T03:34:12;100428.10;;;23.23;24.84
80629;BME280;69983;42.370;-71.210;2023-08-31T03:36:12;100424.82;;;23.95;24.33
80629;BME280;69983;42.370;-71.210;2023-08-31T03:38:13;100419.30;;;24.49;23.99
80629;BME280;69983;42.370;-71.210;2023-08-31T03:40:14;100421.32;;;24.61;23.81
80629;BME280;69983;42.370;-71.210;2023-08-31T03:42:14;100420.62;;;24.94;23.88
80629;BME280;69983;42.370;-71.210;2023-08-31T03:44:15;100428.85;;;24.86;23.87
80629;BME280;69983;42.370;-71.210;2023-08-31T03:46:15;100433.62;;;25.17;23.89
80629;BME280;69983;42.370;-71.210;2023-08-31T03:48:15;100444.74;;;25.10;23.98
80629;BME280;69983;42.370;-71.210;2023-08-31T03:50:16;100452.26;;;23.46;24.51
80629;BME280;69983;42.370;-71.210;2023-08-31T03:52:16;100454.48;;;23.55;24.59
80629;BME280;69983;42.370;-71.210;2023-08-31T03:54:16;100455.72;;;23.53;24.54
80629;BME280;69983;42.370;-71.210;2023-08-31T03:56:17;100460.32;;;23.32;24.62
80629;BME280;69983;42.370;-71.210;2023-08-31T03:58:17;100456.53;;;23.94;24.21
80629;BME280;69983;42.370;-71.210;2023-08-31T04:00:17;100451.01;;;24.38;23.95
80629;BME280;69983;42.370;-71.210;2023-08-31T04:02:18;100449.87;;;24.53;23.97
80629;BME280;69983;42.370;-71.210;2023-08-31T04:04:19;100450.86;;;24.61;24.02
80629;BME280;69983;42.370;-71.210;2023-08-31T04:06:19;100452.61;;;24.49;24.11
80629;BME280;69983;42.370;-71.210;2023-08-31T04:08:20;100458.51;;;24.72;24.03
80629;BME280;69983;42.370;-71.210;2023-08-31T04:10:20;100455.88;;;24.83;24.10
80629;BME280;69983;42.370;-71.210;2023-08-31T04:12:20;100453.84;;;24.47;24.29
80629;BME280;69983;42.370;-71.210;2023-08-31T04:14:21;100460.89;;;23.92;24.27
80629;BME280;69983;42.370;-71.210;2023-08-31T04:16:21;100470.17;;;23.67;24.68
80629;BME280;69983;42.370;-71.210;2023-08-31T04:18:22;100479.15;;;22.81;24.94
80629;BME280;69983;42.370;-71.210;2023-08-31T04:20:22;100482.15;;;23.66;24.44
80629;BME280;69983;42.370;-71.210;2023-08-31T04:22:22;100479.51;;;24.90;23.71
80629;BME280;69983;42.370;-71.210;2023-08-31T04:24:23;100478.68;;;24.76;23.73
80629;BME280;69983;42.370;-71.210;2023-08-31T04:26:23;100480.93;;;25.06;23.62
80629;BME280;69983;42.370;-71.210;2023-08-31T04:28:23;100482.42;;;24.97;23.40
80629;BME280;69983;42.370;-71.210;2023-08-31T04:30:24;100482.55;;;25.36;23.40
80629;BME280;69983;42.370;-71.210;2023-08-31T04:32:24;100480.90;;;25.40;23.46
80629;BME280;69983;42.370;-71.210;2023-08-31T04:34:24;100485.49;;;25.17;23.52
80629;BME280;69983;42.370;-71.210;2023-08-31T04:36:26;100485.17;;;25.68;23.11
80629;BME280;69983;42.370;-71.210;2023-08-31T04:38:26;100493.25;;;25.17;23.08
80629;BME280;69983;42.370;-71.210;2023-08-31T04:40:28;100500.34;;;24.93;22.98
80629;BME280;69983;42.370;-71.210;2023-08-31T04:42:27;100506.62;;;24.69;23.25
80629;BME280;69983;42.370;-71.210;2023-08-31T04:44:27;100516.56;;;24.90;23.22
80629;BME280;69983;42.370;-71.210;2023-08-31T04:46:27;100524.19;;;25.31;23.06
80629;BME280;69983;42.370;-71.210;2023-08-31T04:48:28;100522.80;;;25.11;23.10
80629;BME280;69983;42.370;-71.210;2023-08-31T04:50:28;100522.00;;;25.11;23.22
80629;BME280;69983;42.370;-71.210;2023-08-31T04:52:28;100524.31;;;25.48;23.21
80629;BME280;69983;42.370;-71.210;2023-08-31T04:54:29;100523.88;;;24.90;23.40
80629;BME280;69983;42.370;-71.210;2023-08-31T04:56:32;100517.53;;;25.06;23.50
80629;BME280;69983;42.370;-71.210;2023-08-31T04:58:29;100518.14;;;25.41;23.50
80629;BME280;69983;42.370;-71.210;2023-08-31T05:00:30;100524.32;;;24.71;23.82
80629;BME280;69983;42.370;-71.210;2023-08-31T05:02:31;100530.58;;;24.55;23.72
80629;BME280;69983;42.370;-71.210;2023-08-31T05:04:31;100544.18;;;23.40;24.43
80629;BME280;69983;42.370;-71.210;2023-08-31T05:06:31;100557.58;;;23.36;24.52
80629;BME280;69983;42.370;-71.210;2023-08-31T05:08:32;100557.61;;;24.26;23.98
80629;BME280;69983;42.370;-71.210;2023-08-31T05:10:32;100558.78;;;24.47;23.70
80629;BME280;69983;42.370;-71.210;2023-08-31T05:12:32;100554.31;;;24.51;23.73
80629;BME280;69983;42.370;-71.210;2023-08-31T05:14:33;100552.87;;;24.68;23.70
80629;BME280;69983;42.370;-71.210;2023-08-31T05:16:33;100551.70;;;24.53;23.71
80629;BME280;69983;42.370;-71.210;2023-08-31T05:18:34;100548.35;;;24.80;23.77
80629;BME280;69983;42.370;-71.210;2023-08-31T05:20:34;100546.57;;;25.21;23.66
80629;BME280;69983;42.370;-71.210;2023-08-31T05:22:35;100546.68;;;25.22;23.78
80629;BME280;69983;42.370;-71.210;2023-08-31T05:24:36;100549.86;;;25.10;23.42
80629;BME280;69983;42.370;-71.210;2023-08-31T05:26:36;100555.78;;;25.25;22.88
80629;BME280;69983;42.370;-71.210;2023-08-31T05:28:36;100553.58;;;24.62;23.37
80629;BME280;69983;42.370;-71.210;2023-08-31T05:30:38;100550.44;;;24.18;23.80
80629;BME280;69983;42.370;-71.210;2023-08-31T05:32:37;100551.66;;;24.46;23.87
80629;BME280;69983;42.370;-71.210;2023-08-31T05:34:38;100550.72;;;24.15;23.83
80629;BME280;69983;42.370;-71.210;2023-08-31T05:36:38;100552.50;;;24.13;23.94
80629;BME280;69983;42.370;-71.210;2023-08-31T05:38:38;100557.84;;;24.26;23.94
80629;BME280;69983;42.370;-71.210;2023-08-31T05:40:39;100557.72;;;24.85;23.95
80629;BME280;69983;42.370;-71.210;2023-08-31T05:42:39;100558.27;;;24.78;23.90
80629;BME280;69983;42.370;-71.210;2023-08-31T05:44:39;100557.22;;;24.52;24.01
80629;BME280;69983;42.370;-71.210;2023-08-31T05:46:39;100564.68;;;24.91;23.90
80629;BME280;69983;42.370;-71.210;2023-08-31T05:48:40;100561.54;;;24.81;23.53
80629;BME280;69983;42.370;-71.210;2023-08-31T05:50:41;100555.98;;;24.74;23.47
80629;BME280;69983;42.370;-71.210;2023-08-31T05:52:41;100559.29;;;24.28;23.65
80629;BME280;69983;42.370;-71.210;2023-08-31T05:54:42;100564.28;;;23.98;24.17
80629;BME280;69983;42.370;-71.210;2023-08-31T05:56:43;100564.56;;;23.87;24.15
80629;BME280;69983;42.370;-71.210;2023-08-31T05:58:43;100563.03;;;24.55;23.94
80629;BME280;69983;42.370;-71.210;2023-08-31T06:00:43;100574.58;;;24.24;24.11
80629;BME280;69983;42.370;-71.210;2023-08-31T06:02:43;100579.63;;;24.20;24.05
80629;BME280;69983;42.370;-71.210;2023-08-31T06:04:44;100575.32;;;24.77;23.86
80629;BME280;69983;42.370;-71.210;2023-08-31T06:06:43;100584.08;;;24.51;24.17
80629;BME280;69983;42.370;-71.210;2023-08-31T06:08:43;100586.08;;;24.82;24.05
80629;BME280;69983;42.370;-71.210;2023-08-31T06:10:44;100583.28;;;24.45;24.41
80629;BME280;69983;42.370;-71.210;2023-08-31T06:12:44;100587.74;;;23.86;24.41
80629;BME280;69983;42.370;-71.210;2023-08-31T06:14:44;100586.91;;;22.99;24.88
80629;BME280;69983;42.370;-71.210;2023-08-31T06:16:45;100591.18;;;22.85;24.78
80629;BME280;69983;42.370;-71.210;2023-08-31T06:18:45;100595.35;;;23.43;24.76
80629;BME280;69983;42.370;-71.210;2023-08-31T06:20:45;100592.87;;;23.92;24.44
80629;BME280;69983;42.370;-71.210;2023-08-31T06:22:45;100587.95;;;24.09;24.23
80629;BME280;69983;42.370;-71.210;2023-08-31T06:24:45;100588.81;;;24.21;24.25
80629;BME280;69983;42.370;-71.210;2023-08-31T06:26:45;100583.54;;;24.35;24.23
80629;BME280;69983;42.370;-71.210;2023-08-31T06:28:45;100586.47;;;24.60;24.34
80629;BME280;69983;42.370;-71.210;2023-08-31T06:30:45;100594.29;;;24.61;24.25
80629;BME280;69983;42.370;-71.210;2023-08-31T06:32:47;100595.25;;;24.43;24.48
80629;BME280;69983;42.370;-71.210;2023-08-31T06:34:46;100595.53;;;24.51;24.38
80629;BME280;69983;42.370;-71.210;2023-08-31T06:36:46;100592.25;;;24.50;24.08
80629;BME280;69983;42.370;-71.210;2023-08-31T06:38:46;100594.84;;;23.95;24.12
80629;BME280;69983;42.370;-71.210;2023-08-31T06:40:47;100595.59;;;24.12;23.97
80629;BME280;69983;42.370;-71.210;2023-08-31T06:42:46;100605.38;;;23.66;24.62
80629;BME280;69983;42.370;-71.210;2023-08-31T06:44:46;100609.85;;;23.96;24.71
80629;BME280;69983;42.370;-71.210;2023-08-31T06:46:46;100610.08;;;24.31;24.47
80629;BME280;69983;42.370;-71.210;2023-08-31T06:48:46;100605.99;;;24.15;24.54
80629;BME280;69983;42.370;-71.210;2023-08-31T06:50:47;100607.36;;;24.51;24.56
80629;BME280;69983;42.370;-71.210;2023-08-31T06:52:47;100606.97;;;24.59;24.57
80629;BME280;69983;42.370;-71.210;2023-08-31T06:54:47;100613.67;;;24.30;24.72
80629;BME280;69983;42.370;-71.210;2023-08-31T06:56:48;100616.87;;;24.90;24.30
80629;BME280;69983;42.370;-71.210;2023-08-31T06:58:48;100619.01;;;24.73;24.21
80629;BME280;69983;42.370;-71.210;2023-08-31T07:00:49;100621.32;;;24.64;23.96
80629;BME280;69983;42.370;-71.210;2023-08-31T07:02:49;100618.87;;;24.86;23.47
80629;BME280;69983;42.370;-71.210;2023-08-31T07:04:50;100629.47;;;24.79;23.51
80629;BME280;69983;42.370;-71.210;2023-08-31T07:06:50;100627.76;;;24.92;23.41
80629;BME280;69983;42.370;-71.210;2023-08-31T07:08:51;100628.84;;;25.32;23.30
80629;BME280;69983;42.370;-71.210;2023-08-31T07:10:52;100628.12;;;25.32;23.16
80629;BME280;69983;42.370;-71.210;2023-08-31T07:12:52;100632.55;;;25.59;23.21
80629;BME280;69983;42.370;-71.210;2023-08-31T07:14:52;100629.71;;;25.90;23.01
80629;BME280;69983;42.370;-71.210;2023-08-31T07:16:53;100627.32;;;25.38;23.09
80629;BME280;69983;42.370;-71.210;2023-08-31T07:18:53;100628.90;;;25.76;23.03
80629;BME280;69983;42.370;-71.210;2023-08-31T07:20:54;100631.32;;;25.82;23.04
80629;BME280;69983;42.370;-71.210;2023-08-31T07:22:54;100634.48;;;25.46;23.19
80629;BME280;69983;42.370;-71.210;2023-08-31T07:24:55;100637.68;;;25.62;23.14
80629;BME280;69983;42.370;-71.210;2023-08-31T07:26:55;100638.38;;;25.05;23.56
80629;BME280;69983;42.370;-71.210;2023-08-31T07:28:56;100645.39;;;24.59;23.71
80629;BME280;69983;42.370;-71.210;2023-08-31T07:31:04;100653.11;;;24.39;23.72
80629;BME280;69983;42.370;-71.210;2023-08-31T07:32:58;100657.99;;;24.48;23.59
80629;BME280;69983;42.370;-71.210;2023-08-31T07:34:59;100653.08;;;25.22;23.20
80629;BME280;69983;42.370;-71.210;2023-08-31T07:37:00;100657.05;;;25.15;23.11
80629;BME280;69983;42.370;-71.210;2023-08-31T07:39:00;100656.45;;;25.33;23.04
80629;BME280;69983;42.370;-71.210;2023-08-31T07:41:01;100664.57;;;25.29;23.17
80629;BME280;69983;42.370;-71.210;2023-08-31T07:43:02;100667.71;;;25.76;23.05
80629;BME280;69983;42.370;-71.210;2023-08-31T07:45:02;100672.64;;;25.88;23.02
80629;BME280;69983;42.370;-71.210;2023-08-31T07:47:02;100676.88;;;25.57;23.12
80629;BME280;69983;42.370;-71.210;2023-08-31T07:49:02;100676.38;;;25.48;23.26
80629;BME280;69983;42.370;-71.210;2023-08-31T07:51:02;100674.62;;;25.64;23.19
80629;BME280;69983;42.370;-71.210;2023-08-31T07:53:02;100678.65;;;25.69;23.19
80629;BME280;69983;42.370;-71.210;2023-08-31T07:55:03;100679.47;;;25.66;23.28
80629;BME280;69983;42.370;-71.210;2023-08-31T07:57:03;100677.81;;;25.52;23.64
80629;BME280;69983;42.370;-71.210;2023-08-31T07:59:03;100680.50;;;24.92;23.74
80629;BME280;69983;42.370;-71.210;2023-08-31T08:01:04;100685.81;;;24.71;23.64
80629;BME280;69983;42.370;-71.210;2023-08-31T08:03:04;100682.56;;;24.39;23.85
80629;BME280;69983;42.370;-71.210;2023-08-31T08:05:05;100680.82;;;25.05;23.44
80629;BME280;69983;42.370;-71.210;2023-08-31T08:07:04;100687.90;;;25.35;23.27
80629;BME280;69983;42.370;-71.210;2023-08-31T08:09:05;100685.58;;;25.19;23.25
80629;BME280;69983;42.370;-71.210;2023-08-31T08:11:06;100686.50;;;25.05;23.23
80629;BME280;69983;42.370;-71.210;2023-08-31T08:13:05;100686.96;;;25.50;23.16
80629;BME280;69983;42.370;-71.210;2023-08-31T08:15:07;100695.17;;;25.45;23.26
80629;BME280;69983;42.370;-71.210;2023-08-31T08:17:05;100693.67;;;25.82;23.21
80629;BME280;69983;42.370;-71.210;2023-08-31T08:19:06;100690.95;;;25.51;23.34
80629;BME280;69983;42.370;-71.210;2023-08-31T08:21:06;100688.43;;;25.72;23.39
80629;BME280;69983;42.370;-71.210;2023-08-31T08:23:06;100687.21;;;25.75;23.43
80629;BME280;69983;42.370;-71.210;2023-08-31T08:25:07;100688.13;;;25.24;23.68
80629;BME280;69983;42.370;-71.210;2023-08-31T08:27:06;100687.27;;;24.92;23.58
80629;BME280;69983;42.370;-71.210;2023-08-31T08:29:06;100684.59;;;24.51;23.72
80629;BME280;69983;42.370;-71.210;2023-08-31T08:31:06;100686.95;;;24.45;23.98
80629;BME280;69983;42.370;-71.210;2023-08-31T08:33:07;100689.65;;;25.07;23.48
80629;BME280;69983;42.370;-71.210;2023-08-31T08:35:07;100694.66;;;25.11;23.51
80629;BME280;69983;42.370;-71.210;2023-08-31T08:37:06;100701.15;;;25.24;23.27
80629;BME280;69983;42.370;-71.210;2023-08-31T08:39:07;100705.86;;;25.49;23.33
80629;BME280;69983;42.370;-71.210;2023-08-31T08:41:07;100711.33;;;25.50;23.40
80629;BME280;69983;42.370;-71.210;2023-08-31T08:43:08;100712.12;;;25.25;23.47
80629;BME280;69983;42.370;-71.210;2023-08-31T08:45:09;100708.20;;;25.22;23.34
80629;BME280;69983;42.370;-71.210;2023-08-31T08:47:08;100701.49;;;25.43;23.40
80629;BME280;69983;42.370;-71.210;2023-08-31T08:49:08;100706.20;;;24.93;23.99
80629;BME280;69983;42.370;-71.210;2023-08-31T08:51:09;100708.62;;;24.02;24.16
80629;BME280;69983;42.370;-71.210;2023-08-31T08:53:08;100712.87;;;23.92;24.09
80629;BME280;69983;42.370;-71.210;2023-08-31T08:55:08;100713.86;;;23.86;23.79
80629;BME280;69983;42.370;-71.210;2023-08-31T08:57:08;100719.64;;;24.59;23.58
80629;BME280;69983;42.370;-71.210;2023-08-31T08:59:08;100718.22;;;24.90;23.39
80629;BME280;69983;42.370;-71.210;2023-08-31T09:01:08;100720.15;;;24.94;23.24
80629;BME280;69983;42.370;-71.210;2023-08-31T09:03:08;100722.59;;;24.98;23.27
80629;BME280;69983;42.370;-71.210;2023-08-31T09:05:08;100722.53;;;25.30;23.28
80629;BME280;69983;42.370;-71.210;2023-08-31T09:07:08;100721.51;;;25.38;23.28
80629;BME280;69983;42.370;-71.210;2023-08-31T09:09:09;100722.68;;;25.38;23.35
80629;BME280;69983;42.370;-71.210;2023-08-31T09:11:09;100720.87;;;25.41;23.37
80629;BME280;69983;42.370;-71.210;2023-08-31T09:13:09;100721.45;;;25.21;23.39
80629;BME280;69983;42.370;-71.210;2023-08-31T09:15:09;100721.81;;;25.49;23.41
80629;BME280;69983;42.370;-71.210;2023-08-31T09:17:09;100720.89;;;25.28;23.43
80629;BME280;69983;42.370;-71.210;2023-08-31T09:19:18;100729.81;;;25.23;23.71
80629;BME280;69983;42.370;-71.210;2023-08-31T09:21:11;100735.60;;;24.44;23.79
80629;BME280;69983;42.370;-71.210;2023-08-31T09:23:09;100736.88;;;24.55;23.84
80629;BME280;69983;42.370;-71.210;2023-08-31T09:25:09;100741.68;;;24.37;23.66
80629;BME280;69983;42.370;-71.210;2023-08-31T09:27:10;100752.06;;;24.52;23.79
80629;BME280;69983;42.370;-71.210;2023-08-31T09:29:10;100761.93;;;24.76;23.44
80629;BME280;69983;42.370;-71.210;2023-08-31T09:31:10;100764.61;;;24.94;23.36
80629;BME280;69983;42.370;-71.210;2023-08-31T09:33:13;100771.15;;;24.97;23.41
80629;BME280;69983;42.370;-71.210;2023-08-31T09:35:11;100773.19;;;25.21;23.29
80629;BME280;69983;42.370;-71.210;2023-08-31T09:37:10;100778.74;;;25.06;23.30
80629;BME280;69983;42.370;-71.210;2023-08-31T09:39:10;100784.98;;;25.42;23.27
80629;BME280;69983;42.370;-71.210;2023-08-31T09:41:10;100795.95;;;25.16;23.33
80629;BME280;69983;42.370;-71.210;2023-08-31T09:43:10;100804.70;;;25.22;23.34
80629;BME280;69983;42.370;-71.210;2023-08-31T09:45:11;100809.63;;;25.56;23.30
80629;BME280;69983;42.370;-71.210;2023-08-31T09:47:11;100806.79;;;25.51;23.38
80629;BME280;69983;42.370;-71.210;2023-08-31T09:49:13;100809.72;;;25.40;23.53
80629;BME280;69983;42.370;-71.210;2023-08-31T09:51:11;100817.85;;;25.46;23.69
80629;BME280;69983;42.370;-71.210;2023-08-31T09:53:12;100818.76;;;24.57;23.81
80629;BME280;69983;42.370;-71.210;2023-08-31T09:55:12;100816.56;;;24.06;24.06
80629;BME280;69983;42.370;-71.210;2023-08-31T09:57:12;100820.52;;;23.98;23.87
80629;BME280;69983;42.370;-71.210;2023-08-31T09:59:13;100828.64;;;24.68;23.57
80629;BME280;69983;42.370;-71.210;2023-08-31T10:01:12;100829.94;;;24.73;23.40
80629;BME280;69983;42.370;-71.210;2023-08-31T10:03:12;100832.48;;;25.22;23.45
80629;BME280;69983;42.370;-71.210;2023-08-31T10:05:12;100833.49;;;24.84;23.44
80629;BME280;69983;42.370;-71.210;2023-08-31T10:07:12;100839.28;;;24.92;23.45
80629;BME280;69983;42.370;-71.210;2023-08-31T10:09:13;100845.47;;;25.27;23.44
80629;BME280;69983;42.370;-71.210;2023-08-31T10:11:12;100848.64;;;25.29;23.48
80629;BME280;69983;42.370;-71.210;2023-08-31T10:13:12;100848.80;;;25.31;23.52